Time;durP1;ratioP1;P1;durP2;ratioP2;P2;SDS_P1;SDS_P2;PMS_P1;PMS_P2;Temp;Humidity;BMP_temperature;BMP_pressure;BME280_temperature;BME280_humidity;BME280_pressure;Samples;Min_cycle;Max_cycle;Signal;HPM_P1;HPM_P2
2023/05/20 00:00:08;;;;;;;;;;;;;;;10.83;90.72;96569.84;4983573;28;19956;-71
2023/05/20 00:02:34;;;;;;;;;;;;;;;10.83;91.04;96564.63;4983988;28;20221;-70
2023/05/20 00:05:00;;;;;;;;;;;;;;;10.81;90.64;96563.22;4983861;28;19966;-66
2023/05/20 00:07:26;;;;;;;;;;;;;;;10.80;89.98;96566.88;4983852;28;19989;-66
2023/05/20 00:09:52;;;;;;;;;;;;;;;10.76;90.23;96569.94;4984037;28;19966;-66
2023/05/20 00:12:17;;;;;;;;;;;;;;;10.74;90.21;96558.84;4984051;28;19953;-66
2023/05/20 00:14:43;;;;;;;;;;;;;;;10.72;91.52;96562.72;4983726;28;19961;-66
2023/05/20 00:17:09;;;;;;;;;;;;;;;10.71;92.67;96566.38;4983784;28;19957;-66
2023/05/20 00:19:35;;;;;;;;;;;;;;;10.71;91.07;96558.50;4983826;28;19958;-66
2023/05/20 00:22:01;;;;;;;;;;;;;;;10.70;91.04;96564.75;4983815;28;19953;-67
2023/05/20 00:24:27;;;;;;;;;;;;;;;10.69;91.00;96561.31;4983337;28;19949;-73
2023/05/20 00:26:53;;;;;;;;;;;;;;;10.68;90.32;96548.41;4983353;28;19955;-70
2023/05/20 00:29:20;;;;;;;;;;;;;;;10.64;91.01;96553.28;4983513;28;19952;-71
2023/05/20 00:31:46;;;;;;;;;;;;;;;10.64;89.11;96540.16;4983581;28;19959;-70
2023/05/20 00:34:12;;;;;;;;;;;;;;;10.64;90.88;96545.41;4983058;28;19995;-71
2023/05/20 00:36:38;;;;;;;;;;;;;;;10.63;92.53;96554.31;4983357;28;19956;-71
2023/05/20 00:39:03;;;;;;;;;;;;;;;10.63;90.24;96545.66;4983447;28;20099;-69
2023/05/20 00:41:29;;;;;;;;;;;;;;;10.62;92.58;96555.31;4983592;28;19984;-70
2023/05/20 00:43:55;;;;;;;;;;;;;;;10.63;92.22;96550.91;5049879;28;19977;-70
2023/05/20 00:46:22;;;;;;;;;;;;;;;10.64;92.00;96552.50;4983424;28;19957;-69
2023/05/20 00:48:48;;;;;;;;;;;;;;;10.64;91.47;96544.63;4983422;28;19959;-70
2023/05/20 00:51:14;;;;;;;;;;;;;;;10.62;92.81;96549.28;4983387;28;20253;-70
2023/05/20 00:53:40;;;;;;;;;;;;;;;10.62;91.92;96544.03;4983290;28;19941;-70
2023/05/20 00:56:07;;;;;;;;;;;;;;;10.62;91.33;96546.66;4982945;28;20035;-70
2023/05/20 00:58:35;;;;;;;;;;;;;;;10.60;92.27;96539.00;5050135;28;19962;-72
2023/05/20 01:01:01;;;;;;;;;;;;;;;10.60;92.40;96544.25;4982982;28;19956;-71
2023/05/20 01:03:28;;;;;;;;;;;;;;;10.61;94.38;96545.84;4983259;28;19956;-71
2023/05/20 01:05:53;;;;;;;;;;;;;;;10.60;91.66;96530.34;4982970;28;20146;-71
2023/05/20 01:08:20;;;;;;;;;;;;;;;10.60;92.80;96540.81;4983000;28;19995;-69
2023/05/20 01:10:48;;;;;;;;;;;;;;;10.57;92.03;96534.19;4982912;28;19958;-70
2023/05/20 01:13:16;;;;;;;;;;;;;;;10.56;92.38;96527.31;4982091;28;19950;-70
2023/05/20 01:15:44;;;;;;;;;;;;;;;10.55;92.96;96536.22;4982936;28;19977;-70
2023/05/20 01:18:17;;;;;;;;;;;;;;;10.54;93.59;96535.44;4983097;28;20135;-71
2023/05/20 01:20:46;;;;;;;;;;;;;;;10.54;92.55;96526.75;4983025;28;19940;-71
2023/05/20 01:23:11;;;;;;;;;;;;;;;10.53;95.90;96533.03;4983045;28;19961;-72
2023/05/20 01:25:37;;;;;;;;;;;;;;;10.53;94.68;96522.53;4982969;28;19950;-71
2023/05/20 01:28:03;;;;;;;;;;;;;;;10.53;95.17;96535.63;5049549;28;19962;-71
2023/05/20 01:30:33;;;;;;;;;;;;;;;10.53;95.58;96527.78;4982843;28;19957;-72
2023/05/20 01:33:01;;;;;;;;;;;;;;;10.51;94.35;96521.94;4982678;28;19969;-71
2023/05/20 01:35:27;;;;;;;;;;;;;;;10.50;94.38;96521.16;4982763;28;19966;-66
2023/05/20 01:37:54;;;;;;;;;;;;;;;10.50;95.06;96521.16;4982804;28;19960;-88
2023/05/20 01:40:21;;;;;;;;;;;;;;;10.51;93.98;96514.06;4982757;28;19953;-87
2023/05/20 01:42:51;;;;;;;;;;;;;;;10.50;95.95;96517.72;4982245;28;19962;-87
2023/05/20 01:45:18;;;;;;;;;;;;;;;10.50;96.84;96522.97;4982785;28;19959;-87
2023/05/20 01:47:47;;;;;;;;;;;;;;;10.50;96.75;96521.16;4982822;28;19942;-85
2023/05/20 01:50:12;;;;;;;;;;;;;;;10.49;96.71;96519.53;4983006;28;19962;-83
2023/05/20 01:52:38;;;;;;;;;;;;;;;10.51;98.39;96514.06;5049513;28;19968;-84
2023/05/20 01:55:04;;;;;;;;;;;;;;;10.52;98.86;96516.50;4982279;28;19964;-74
2023/05/20 01:57:30;;;;;;;;;;;;;;;10.50;95.53;96508.03;5049205;28;19962;-73
2023/05/20 01:59:56;;;;;;;;;;;;;;;10.52;97.13;96510.41;4982544;28;19978;-73
2023/05/20 02:02:22;;;;;;;;;;;;;;;10.53;97.04;96512.03;4982376;28;19952;-72
2023/05/20 02:04:49;;;;;;;;;;;;;;;10.54;98.72;96513.63;4982334;28;19959;-72
2023/05/20 02:07:15;;;;;;;;;;;;;;;10.54;96.90;96506.59;4982386;28;19959;-72
2023/05/20 02:09:41;;;;;;;;;;;;;;;10.55;96.16;96500.31;4982508;28;19954;-73
2023/05/20 02:12:07;;;;;;;;;;;;;;;10.55;95.67;96507.38;4982411;28;20040;-70
2023/05/20 02:14:33;;;;;;;;;;;;;;;10.56;97.53;96508.97;4982308;28;19966;-71
2023/05/20 02:16:59;;;;;;;;;;;;;;;10.58;99.21;96512.19;4981837;28;19962;-71
2023/05/20 02:19:25;;;;;;;;;;;;;;;10.56;96.23;96495.88;4981875;28;19991;-70
2023/05/20 02:21:51;;;;;;;;;;;;;;;10.57;100.00;96511.38;4981862;28;19954;-71
2023/05/20 02:24:17;;;;;;;;;;;;;;;10.56;98.12;96509.81;4985149;28;19959;-71
2023/05/20 02:26:44;;;;;;;;;;;;;;;10.56;97.19;96508.97;4985277;28;20011;-71
2023/05/20 02:29:10;;;;;;;;;;;;;;;10.52;99.61;96510.41;4985596;28;20237;-73
2023/05/20 02:31:36;;;;;;;;;;;;;;;10.51;98.76;96507.00;4985017;28;19960;-72
2023/05/20 02:34:03;;;;;;;;;;;;;;;10.49;99.73;96503.00;4985559;28;19965;-72
2023/05/20 02:36:31;;;;;;;;;;;;;;;10.49;99.69;96503.00;4985594;28;19951;-72
2023/05/20 02:38:57;;;;;;;;;;;;;;;10.49;100.00;96503.00;4985398;28;19956;-73
2023/05/20 02:41:23;;;;;;;;;;;;;;;10.48;99.88;96494.34;4985439;28;19992;-72
2023/05/20 02:43:48;;;;;;;;;;;;;;;10.47;100.00;96490.09;4985369;28;19966;-72
2023/05/20 02:46:17;;;;;;;;;;;;;;;10.46;100.00;96498.19;4984839;28;19939;-71
2023/05/20 02:48:43;;;;;;;;;;;;;;;10.46;100.00;96501.63;4985351;28;19960;-71
2023/05/20 02:51:09;;;;;;;;;;;;;;;10.45;100.00;96502.63;4985316;28;20262;-73
2023/05/20 02:53:35;;;;;;;;;;;;;;;10.45;100.00;96499.19;4984836;28;19961;-74
2023/05/20 02:56:02;;;;;;;;;;;;;;;10.43;100.00;96501.25;4985083;28;19973;-72
2023/05/20 02:58:28;;;;;;;;;;;;;;;10.41;100.00;96508.50;4985162;28;19962;-72
2023/05/20 03:00:56;;;;;;;;;;;;;;;10.39;100.00;96502.69;4984501;28;19955;-73
2023/05/20 03:03:22;;;;;;;;;;;;;;;10.38;99.63;96501.09;4984983;28;20244;-73
2023/05/20 03:05:48;;;;;;;;;;;;;;;10.39;100.00;96497.44;4984900;28;19952;-73
2023/05/20 03:08:14;;;;;;;;;;;;;;;10.40;100.00;96517.41;4985052;28;19967;-73
2023/05/20 03:10:40;;;;;;;;;;;;;;;10.39;100.00;96513.97;4985254;28;19959;-72
2023/05/20 03:13:14;;;;;;;;;;;;;;;10.39;100.00;96510.53;4984896;28;19959;-73
2023/05/20 03:15:40;;;;;;;;;;;;;;;10.37;100.00;96505.50;4984358;28;20147;-73
2023/05/20 03:18:07;;;;;;;;;;;;;;;10.36;100.00;96512.56;4984445;28;19969;-73
2023/05/20 03:20:37;;;;;;;;;;;;;;;10.36;100.00;96515.19;4984447;28;19963;-73
2023/05/20 03:23:03;;;;;;;;;;;;;;;10.36;100.00;96509.16;4984463;28;19954;-73
2023/05/20 03:25:29;;;;;;;;;;;;;;;10.36;100.00;96502.09;4984549;28;19959;-66
2023/05/20 03:27:57;;;;;;;;;;;;;;;10.35;100.00;96497.88;4984476;28;19951;-79
2023/05/20 03:30:23;;;;;;;;;;;;;;;10.36;100.00;96507.34;4984555;28;19955;-79
2023/05/20 03:32:49;;;;;;;;;;;;;;;10.37;100.00;96508.13;4984566;28;20006;-77
2023/05/20 03:35:15;;;;;;;;;;;;;;;10.36;100.00;96507.34;4984004;28;19962;-76
2023/05/20 03:37:41;;;;;;;;;;;;;;;10.38;100.00;96503.72;5051445;28;19958;-76
2023/05/20 03:40:09;;;;;;;;;;;;;;;10.36;100.00;96496.06;5051146;28;20117;-76
2023/05/20 03:42:35;;;;;;;;;;;;;;;10.36;100.00;96502.09;4984202;28;20284;-72
2023/05/20 03:45:01;;;;;;;;;;;;;;;10.33;100.00;96510.41;4984496;28;20132;-72
2023/05/20 03:47:28;;;;;;;;;;;;;;;10.34;100.00;96505.94;4984619;28;19957;-72
2023/05/20 03:49:54;;;;;;;;;;;;;;;10.32;100.00;96519.25;4984044;28;20268;-71
2023/05/20 03:52:20;;;;;;;;;;;;;;;10.31;100.00;96517.69;5051065;28;19987;-72
2023/05/20 03:54:46;;;;;;;;;;;;;;;10.32;100.00;96508.78;4983927;28;19966;-72
2023/05/20 03:57:12;;;;;;;;;;;;;;;10.32;100.00;96519.25;4983750;28;19991;-72
2023/05/20 03:59:38;;;;;;;;;;;;;;;10.32;100.00;96514.03;4984083;28;19960;-72
2023/05/20 04:02:04;;;;;;;;;;;;;;;10.32;100.00;96515.84;4984062;28;19964;-77
2023/05/20 04:04:31;;;;;;;;;;;;;;;10.33;100.00;96509.56;4984161;28;19955;-71
2023/05/20 04:06:59;;;;;;;;;;;;;;;10.32;100.00;96505.38;4984383;28;19958;-71
2023/05/20 04:09:25;;;;;;;;;;;;;;;10.33;100.00;96510.41;4984014;28;19961;-72
2023/05/20 04:11:51;;;;;;;;;;;;;;;10.35;100.00;96510.16;4983634;28;19956;-73
2023/05/20 04:14:18;;;;;;;;;;;;;;;10.35;100.00;96513.59;4984086;28;20041;-71
2023/05/20 04:16:44;;;;;;;;;;;;;;;10.36;100.00;96501.28;4983868;28;19966;-72
2023/05/20 04:19:11;;;;;;;;;;;;;;;10.37;100.00;96500.25;4983640;28;19952;-72
2023/05/20 04:21:37;;;;;;;;;;;;;;;10.38;100.00;96496.66;4983604;28;19961;-72
2023/05/20 04:24:04;;;;;;;;;;;;;;;10.38;100.00;96496.66;4983630;28;20134;-70
2023/05/20 04:26:30;;;;;;;;;;;;;;;10.38;100.00;96498.47;4983306;28;19960;-71
2023/05/20 04:28:57;;;;;;;;;;;;;;;10.38;100.00;96496.66;5050137;28;19967;-71
2023/05/20 04:31:25;;;;;;;;;;;;;;;10.39;100.00;96494.81;4983635;28;19957;-70
2023/05/20 04:33:52;;;;;;;;;;;;;;;10.39;100.00;96498.22;4983759;28;19963;-70
2023/05/20 04:36:17;;;;;;;;;;;;;;;10.38;100.00;96491.41;4983603;28;19968;-71
2023/05/20 04:38:43;;;;;;;;;;;;;;;10.38;100.00;96496.66;5050043;28;19942;-70
2023/05/20 04:41:09;;;;;;;;;;;;;;;10.40;100.00;96501.69;4983600;28;19963;-71
2023/05/20 04:43:37;;;;;;;;;;;;;;;10.42;100.00;96500.44;4983116;28;19966;-71
2023/05/20 04:46:06;;;;;;;;;;;;;;;10.45;100.00;96496.59;4982550;28;19963;-71
2023/05/20 04:48:32;;;;;;;;;;;;;;;10.48;100.00;96499.59;5050331;28;20028;-72
2023/05/20 04:50:58;;;;;;;;;;;;;;;10.52;100.00;96497.31;4983294;28;19957;-71
2023/05/20 04:53:24;;;;;;;;;;;;;;;10.54;100.00;96498.72;4983203;28;19998;-72
2023/05/20 04:55:53;;;;;;;;;;;;;;;10.57;100.00;96503.53;4982669;28;19967;-74
2023/05/20 04:58:23;;;;;;;;;;;;;;;10.61;100.00;96497.84;4983271;28;19959;-76
2023/05/20 05:00:49;;;;;;;;;;;;;;;10.66;100.00;96511.13;4983295;28;19973;-71
2023/05/20 05:03:16;;;;;;;;;;;;;;;10.70;100.00;96499.97;4983493;28;20233;-71
2023/05/20 05:05:41;;;;;;;;;;;;;;;10.75;100.00;96502.75;4983098;28;19957;-71
2023/05/20 05:08:08;;;;;;;;;;;;;;;10.80;100.00;96490.81;4982734;28;19958;-71
2023/05/20 05:10:34;;;;;;;;;;;;;;;10.82;100.00;96489.56;4983354;28;19961;-71
2023/05/20 05:13:00;;;;;;;;;;;;;;;10.84;100.00;96477.03;4982775;28;19963;-72
2023/05/20 05:15:26;;;;;;;;;;;;;;;10.87;100.00;96483.66;4982755;28;19967;-66
2023/05/20 05:17:52;;;;;;;;;;;;;;;10.91;100.00;96474.34;4982864;28;20163;-72
2023/05/20 05:20:18;;;;;;;;;;;;;;;10.94;100.00;96484.38;4982777;28;19960;-72
2023/05/20 05:22:45;;;;;;;;;;;;;;;10.99;100.00;96486.38;4982758;28;19984;-73
2023/05/20 05:25:11;;;;;;;;;;;;;;;11.03;100.00;96488.34;4982575;28;19958;-73
2023/05/20 05:27:37;;;;;;;;;;;;;;;11.07;100.00;96483.44;4982946;28;20161;-73
2023/05/20 05:30:03;;;;;;;;;;;;;;;11.11;100.00;96488.03;4982821;28;19960;-72
2023/05/20 05:32:30;;;;;;;;;;;;;;;11.16;100.00;96482.13;5049269;28;20266;-75
2023/05/20 05:34:55;;;;;;;;;;;;;;;11.22;100.00;96476.00;4982733;28;19967;-72
2023/05/20 05:37:21;;;;;;;;;;;;;;;11.27;100.00;96465.63;5033405;28;20790;-71
2023/05/20 05:39:47;;;;;;;;;;;;;;;11.31;100.00;96473.88;4982891;28;20024;-71
2023/05/20 05:42:13;;;;;;;;;;;;;;;11.35;100.00;96481.06;5049363;28;19961;-70
2023/05/20 05:44:39;;;;;;;;;;;;;;;11.42;100.00;96470.47;4981920;28;19960;-70
2023/05/20 05:47:05;;;;;;;;;;;;;;;11.49;100.00;96465.94;4982770;28;20005;-70
2023/05/20 05:49:31;;;;;;;;;;;;;;;11.53;100.00;96466.31;4982255;28;20107;-71
2023/05/20 05:51:57;;;;;;;;;;;;;;;11.63;100.00;96463.13;4982250;28;19962;-71
2023/05/20 05:54:23;;;;;;;;;;;;;;;11.73;100.00;96473.91;4981893;28;20274;-70
2023/05/20 05:56:52;;;;;;;;;;;;;;;11.78;100.00;96474.84;4982350;28;19967;-70
2023/05/20 05:59:18;;;;;;;;;;;;;;;11.86;100.00;96478.16;4985946;28;19954;-70
2023/05/20 06:01:44;;;;;;;;;;;;;;;11.91;100.00;96473.09;4986020;28;19993;-70
2023/05/20 06:04:10;;;;;;;;;;;;;;;11.96;100.00;96470.56;4985840;28;19950;-70
2023/05/20 06:06:36;;;;;;;;;;;;;;;12.02;100.00;96463.63;4985897;28;19945;-70
2023/05/20 06:09:02;;;;;;;;;;;;;;;12.05;100.00;96466.56;4985403;28;19962;-70
2023/05/20 06:11:28;;;;;;;;;;;;;;;12.11;100.00;96467.50;4985486;28;20040;-73
2023/05/20 06:13:54;;;;;;;;;;;;;;;12.14;100.00;96459.19;4985798;28;20217;-68
2023/05/20 06:16:20;;;;;;;;;;;;;;;12.18;100.00;96462.94;4985843;28;19966;-67
2023/05/20 06:18:46;;;;;;;;;;;;;;;12.23;100.00;96454.38;4985531;28;20260;-68
2023/05/20 06:21:12;;;;;;;;;;;;;;;12.29;100.00;96456.09;4986146;28;19956;-68
2023/05/20 06:23:38;;;;;;;;;;;;;;;12.34;100.00;96457.00;4985503;28;19963;-68
2023/05/20 06:26:03;;;;;;;;;;;;;;;12.41;100.00;96456.91;4985688;28;19955;-68
2023/05/20 06:28:29;;;;;;;;;;;;;;;12.46;100.00;96443.84;4985474;28;19993;-72
2023/05/20 06:30:56;;;;;;;;;;;;;;;12.51;100.00;96441.31;4985789;28;19954;-68
2023/05/20 06:33:24;;;;;;;;;;;;;;;12.59;100.00;96437.56;4985687;28;20224;-68
2023/05/20 06:35:51;;;;;;;;;;;;;;;12.67;100.00;96445.09;4985518;28;19965;-68
2023/05/20 06:38:17;;;;;;;;;;;;;;;12.79;100.00;96437.19;4985044;28;20126;-68
2023/05/20 06:40:42;;;;;;;;;;;;;;;12.91;100.00;96432.69;5052681;28;19953;-68
2023/05/20 06:43:08;;;;;;;;;;;;;;;13.08;100.00;96431.97;4985339;28;19959;-68
2023/05/20 06:45:34;;;;;;;;;;;;;;;13.18;99.25;96430.31;4985318;28;19954;-69
2023/05/20 06:48:00;;;;;;;;;;;;;;;13.24;100.00;96433.06;4985031;28;20028;-74
2023/05/20 06:50:27;;;;;;;;;;;;;;;13.22;98.39;96414.84;4985028;28;19995;-73
2023/05/20 06:52:53;;;;;;;;;;;;;;;13.24;97.51;96418.06;4985293;28;19978;-74
2023/05/20 06:55:19;;;;;;;;;;;;;;;13.26;96.60;96413.34;4984934;28;20248;-74
2023/05/20 06:57:45;;;;;;;;;;;;;;;13.23;96.98;96419.09;4985039;28;19956;-73
2023/05/20 07:00:12;;;;;;;;;;;;;;;13.29;97.11;96420.00;4985083;28;20054;-74
2023/05/20 07:02:38;;;;;;;;;;;;;;;13.32;95.89;96419.56;4985018;28;20272;-74
2023/05/20 07:05:04;;;;;;;;;;;;;;;13.32;96.60;96417.72;4984606;28;20134;-72
2023/05/20 07:07:31;;;;;;;;;;;;;;;13.37;97.38;96424.91;4984810;28;20129;-77
2023/05/20 07:09:57;;;;;;;;;;;;;;;13.40;96.00;96408.63;4984259;28;19977;-77
2023/05/20 07:12:23;;;;;;;;;;;;;;;13.46;96.58;96409.50;4984400;28;19963;-77
2023/05/20 07:14:49;;;;;;;;;;;;;;;13.50;95.40;96398.28;5052048;28;19969;-76
2023/05/20 07:17:15;;;;;;;;;;;;;;;13.56;96.05;96405.22;4984732;28;20249;-76
2023/05/20 07:19:41;;;;;;;;;;;;;;;13.60;97.22;96403.69;4984544;28;20032;-77
2023/05/20 07:22:07;;;;;;;;;;;;;;;13.64;95.80;96400.59;4984602;28;19958;-76
2023/05/20 07:24:33;;;;;;;;;;;;;;;13.69;96.72;96401.50;4984578;28;19997;-72
2023/05/20 07:26:58;;;;;;;;;;;;;;;13.74;94.86;96400.78;4984580;28;19967;-73
2023/05/20 07:29:24;;;;;;;;;;;;;;;13.60;90.99;96374.72;4984664;28;19956;-74
2023/05/20 07:31:50;;;;;;;;;;;;;;;13.58;93.88;96405.78;4984555;28;19962;-73
2023/05/20 07:34:16;;;;;;;;;;;;;;;13.64;93.26;96401.41;4984117;28;19943;-74
2023/05/20 07:36:42;;;;;;;;;;;;;;;13.94;95.16;96406.38;4984654;28;19963;-74
2023/05/20 07:39:09;;;;;;;;;;;;;;;14.25;94.40;96393.63;4984052;28;19970;-73
2023/05/20 07:41:36;;;;;;;;;;;;;;;14.51;92.27;96375.50;4984042;28;20141;-72
2023/05/20 07:44:03;;;;;;;;;;;;;;;14.66;91.89;96362.56;4984496;28;19961;-72
2023/05/20 07:46:29;;;;;;;;;;;;;;;14.77;89.14;96356.34;4984556;28;19954;-72
2023/05/20 07:48:55;;;;;;;;;;;;;;;14.86;90.63;96374.38;4984261;28;19960;-71
2023/05/20 07:51:21;;;;;;;;;;;;;;;14.94;90.40;96358.13;4984417;28;20265;-71
2023/05/20 07:53:47;;;;;;;;;;;;;;;14.96;90.01;96363.94;4984311;28;19957;-71
2023/05/20 07:56:12;;;;;;;;;;;;;;;14.93;89.71;96361.78;5050901;28;20038;-72
2023/05/20 07:58:41;;;;;;;;;;;;;;;14.84;87.45;96348.22;4984220;28;19951;-72
2023/05/20 08:01:08;;;;;;;;;;;;;;;14.77;87.92;96345.00;4984200;28;19963;-72
2023/05/20 08:03:35;;;;;;;;;;;;;;;14.99;89.82;96348.41;4983736;28;19947;-67
2023/05/20 08:06:01;;;;;;;;;;;;;;;15.41;90.26;96347.75;4983948;28;19975;-68
2023/05/20 08:08:29;;;;;;;;;;;;;;;15.59;87.72;96332.56;4983695;28;19955;-67
2023/05/20 08:10:55;;;;;;;;;;;;;;;15.55;88.00;96344.69;4983616;28;20198;-67
2023/05/20 08:13:21;;;;;;;;;;;;;;;15.50;87.00;96337.53;4983731;28;20017;-67
2023/05/20 08:15:47;;;;;;;;;;;;;;;15.42;87.11;96346.69;4983597;28;20277;-67
2023/05/20 08:18:16;;;;;;;;;;;;;;;15.35;86.65;96355.88;4983624;28;19962;-76
2023/05/20 08:20:42;;;;;;;;;;;;;;;15.17;83.90;96334.06;4983630;28;19962;-71
2023/05/20 08:23:07;;;;;;;;;;;;;;;15.04;87.21;96366.16;4983694;28;19958;-71
2023/05/20 08:25:33;;;;;;;;;;;;;;;15.04;88.01;96379.34;4983822;28;19969;-72
2023/05/20 08:28:04;;;;;;;;;;;;;;;15.17;87.40;96367.59;4983727;28;19966;-72
2023/05/20 08:30:30;;;;;;;;;;;;;;;15.21;88.57;96373.97;4983657;28;19979;-72
2023/05/20 08:32:56;;;;;;;;;;;;;;;15.19;85.77;96354.94;4983200;28;19960;-71
2023/05/20 08:35:22;;;;;;;;;;;;;;;15.27;85.65;96354.50;4983637;28;20145;-70
2023/05/20 08:37:48;;;;;;;;;;;;;;;15.48;87.05;96362.63;4983186;28;20296;-72
2023/05/20 08:40:14;;;;;;;;;;;;;;;15.79;86.60;96358.38;4983071;28;19958;-72
2023/05/20 08:42:41;;;;;;;;;;;;;;;15.93;85.57;96348.97;4983678;28;19958;-72
2023/05/20 08:45:09;;;;;;;;;;;;;;;16.15;85.55;96356.00;4983262;28;19961;-72
2023/05/20 08:47:37;;;;;;;;;;;;;;;16.28;84.33;96330.94;4983421;28;19968;-72
2023/05/20 08:50:03;;;;;;;;;;;;;;;16.41;82.95;96320.69;4983293;28;19961;-72
2023/05/20 08:52:31;;;;;;;;;;;;;;;16.43;83.46;96328.38;4983528;28;19960;-72
2023/05/20 08:54:57;;;;;;;;;;;;;;;16.29;78.85;96301.56;4983341;28;19954;-67
2023/05/20 08:57:23;;;;;;;;;;;;;;;16.20;80.62;96308.41;4983299;28;19970;-67
2023/05/20 08:59:49;;;;;;;;;;;;;;;16.15;82.86;96321.63;5049917;28;20241;-72
2023/05/20 09:02:16;;;;;;;;;;;;;;;16.18;77.68;96271.63;4983334;28;19968;-71
2023/05/20 09:04:41;;;;;;;;;;;;;;;16.40;82.85;96313.81;4982904;28;19957;-72
2023/05/20 09:07:07;;;;;;;;;;;;;;;16.58;82.04;96304.59;4983063;28;20008;-72
2023/05/20 09:09:34;;;;;;;;;;;;;;;16.63;73.49;96248.22;4982855;28;20027;-72
2023/05/20 09:12:01;;;;;;;;;;;;;;;16.69;73.03;96241.88;4983165;28;19969;-71
2023/05/20 09:14:30;;;;;;;;;;;;;;;16.77;77.81;96277.66;4983169;28;19954;-77
2023/05/20 09:16:56;;;;;;;;;;;;;;;16.66;78.27;96287.41;4982823;28;20139;-73
2023/05/20 09:19:22;;;;;;;;;;;;;;;16.54;76.27;96273.63;4982946;28;19948;-72
2023/05/20 09:21:50;;;;;;;;;;;;;;;16.71;79.36;96313.13;4982960;28;19969;-72
2023/05/20 09:24:19;;;;;;;;;;;;;;;16.77;76.38;96275.78;4982975;28;19958;-72
2023/05/20 09:26:45;;;;;;;;;;;;;;;16.73;75.85;96279.22;4982899;28;19961;-72
2023/05/20 09:29:11;;;;;;;;;;;;;;;16.64;76.98;96302.78;5049801;28;20277;-71
2023/05/20 09:31:37;;;;;;;;;;;;;;;16.63;78.19;96301.97;4982595;28;20001;-72
2023/05/20 09:34:03;;;;;;;;;;;;;;;16.58;76.61;96279.97;4982359;28;19950;-72
2023/05/20 09:36:31;;;;;;;;;;;;;;;16.63;75.28;96266.75;5049317;28;19977;-72
2023/05/20 09:38:59;;;;;;;;;;;;;;;16.99;78.87;96288.06;4982520;28;19953;-71
2023/05/20 09:41:30;;;;;;;;;;;;;;;17.39;77.87;96276.72;4982542;28;19965;-72
2023/05/20 09:43:58;;;;;;;;;;;;;;;17.90;78.10;96275.09;4982661;28;19954;-72
2023/05/20 09:46:24;;;;;;;;;;;;;;;18.15;74.20;96240.53;5049566;28;20260;-72
2023/05/20 09:48:50;;;;;;;;;;;;;;;18.32;69.27;96208.34;4982640;28;19957;-72
2023/05/20 09:51:16;;;;;;;;;;;;;;;18.44;74.40;96245.97;4982322;28;19965;-73
2023/05/20 09:53:44;;;;;;;;;;;;;;;18.64;73.74;96237.09;4981839;28;20486;-75
2023/05/20 09:56:11;;;;;;;;;;;;;;;18.78;69.79;96212.59;4982565;28;19970;-76
2023/05/20 09:58:37;;;;;;;;;;;;;;;18.93;67.97;96230.34;4982175;28;19955;-76
2023/05/20 10:01:05;;;;;;;;;;;;;;;19.09;68.56;96279.66;4982195;28;19978;-75
2023/05/20 10:03:32;;;;;;;;;;;;;;;19.19;68.26;96284.09;4982201;28;19959;-76
2023/05/20 10:06:19;;;;;;;;;;;;;;;19.06;68.04;96288.94;4982176;28;19963;-76
2023/05/20 10:08:57;;;;;;;;;;;;;;;18.83;70.01;96298.38;5049162;28;20154;-66
2023/05/20 10:11:26;;;;;;;;;;;;;;;18.54;68.60;96295.59;4982049;28;19960;-66
2023/05/20 10:13:58;;;;;;;;;;;;;;;18.36;70.45;96302.28;4982451;28;19979;-76
2023/05/20 10:16:23;;;;;;;;;;;;;;;18.29;70.98;96296.50;4981858;28;20174;-76
2023/05/20 10:19:08;;;;;;;;;;;;;;;18.22;70.01;96295.97;4982036;28;19957;-76
2023/05/20 10:21:34;;;;;;;;;;;;;;;18.33;69.55;96284.28;4981984;28;19985;-76
2023/05/20 10:24:10;;;;;;;;;;;;;;;18.63;69.87;96295.81;4982008;28;19964;-76
2023/05/20 10:26:36;;;;;;;;;;;;;;;18.89;67.01;96277.91;4982252;28;19963;-75
2023/05/20 10:29:13;;;;;;;;;;;;;;;19.17;69.27;96299.53;4982105;28;20030;-72
2023/05/20 10:31:43;;;;;;;;;;;;;;;19.44;65.61;96283.94;4982230;28;19960;-67
2023/05/20 10:34:13;;;;;;;;;;;;;;;19.42;60.95;96264.78;4982112;28;19959;-67
2023/05/20 10:36:43;;;;;;;;;;;;;;;19.50;62.01;96271.34;4982094;28;19960;-67
2023/05/20 10:39:14;;;;;;;;;;;;;;;19.76;67.71;96290.59;4981740;28;19963;-66
2023/05/20 10:41:40;;;;;;;;;;;;;;;20.10;68.07;96294.28;4982253;28;19953;-68
2023/05/20 10:44:06;;;;;;;;;;;;;;;20.46;66.72;96281.34;4981761;28;19964;-67
2023/05/20 10:46:32;;;;;;;;;;;;;;;20.39;59.23;96271.03;4985321;28;19964;-73
2023/05/20 10:48:58;;;;;;;;;;;;;;;20.29;64.33;96284.47;4985066;28;19955;-73
2023/05/20 10:51:27;;;;;;;;;;;;;;;20.12;61.63;96281.47;4985120;28;19955;-72
2023/05/20 10:53:54;;;;;;;;;;;;;;;20.22;63.57;96274.16;4985028;28;19964;-73
2023/05/20 10:56:21;;;;;;;;;;;;;;;20.26;63.86;96263.72;4985082;28;19972;-73
2023/05/20 10:58:47;;;;;;;;;;;;;;;20.12;63.05;96262.84;4984670;28;20258;-72
2023/05/20 11:01:13;;;;;;;;;;;;;;;19.93;65.26;96271.53;4984542;28;19967;-72
2023/05/20 11:03:40;;;;;;;;;;;;;;;19.82;65.87;96273.50;4985382;28;19947;-75
2023/05/20 11:06:17;;;;;;;;;;;;;;;19.75;64.69;96267.72;4984703;28;20264;-72
2023/05/20 11:08:43;;;;;;;;;;;;;;;19.63;66.36;96278.72;4984694;28;19978;-72
2023/05/20 11:11:12;;;;;;;;;;;;;;;19.64;67.50;96271.50;4984728;28;20152;-72
2023/05/20 11:13:38;;;;;;;;;;;;;;;19.62;66.18;96261.16;4984728;28;19950;-72
2023/05/20 11:16:04;;;;;;;;;;;;;;;19.58;67.73;96260.13;4984611;28;19982;-72
2023/05/20 11:18:30;;;;;;;;;;;;;;;19.53;67.51;96265.50;4984608;28;19965;-72
2023/05/20 11:21:00;;;;;;;;;;;;;;;19.44;66.52;96253.84;4984186;28;19956;-73
2023/05/20 11:23:27;;;;;;;;;;;;;;;19.36;66.72;96246.47;4984804;28;20162;-72
2023/05/20 11:25:53;;;;;;;;;;;;;;;19.33;66.96;96269.09;4984819;28;19990;-72
2023/05/20 11:28:22;;;;;;;;;;;;;;;19.51;67.89;96257.00;4984638;28;19956;-71
2023/05/20 11:30:49;;;;;;;;;;;;;;;19.69;67.69;96268.78;4984871;28;19960;-72
2023/05/20 11:33:16;;;;;;;;;;;;;;;19.71;66.53;96263.22;4984235;28;19952;-72
2023/05/20 11:35:46;;;;;;;;;;;;;;;19.70;66.89;96261.59;4984237;28;19962;-72
2023/05/20 11:38:11;;;;;;;;;;;;;;;19.67;66.81;96261.13;4984507;28;20137;-72
2023/05/20 11:40:41;;;;;;;;;;;;;;;19.74;66.40;96249.34;4984245;28;19959;-76
2023/05/20 11:43:09;;;;;;;;;;;;;;;19.78;66.79;96247.72;4984309;28;19954;-72
2023/05/20 11:45:39;;;;;;;;;;;;;;;19.86;65.35;96241.78;4984342;28;19961;-73
2023/05/20 11:48:05;;;;;;;;;;;;;;;20.10;62.91;96225.06;5051182;28;19958;-73
2023/05/20 11:50:35;;;;;;;;;;;;;;;20.40;65.22;96231.88;4983940;28;19963;-73
2023/05/20 11:53:02;;;;;;;;;;;;;;;20.48;62.89;96218.69;4984285;28;20133;-73
2023/05/20 11:55:30;;;;;;;;;;;;;;;20.45;61.47;96224.59;4983403;28;19945;-73
2023/05/20 11:57:57;;;;;;;;;;;;;;;20.34;59.97;96223.13;4983796;28;19967;-73
2023/05/20 12:00:22;;;;;;;;;;;;;;;20.25;59.71;96219.53;4984458;28;19958;-71
2023/05/20 12:02:48;;;;;;;;;;;;;;;20.38;63.30;96228.69;4983911;28;20304;-66
2023/05/20 12:05:15;;;;;;;;;;;;;;;20.53;61.24;96230.38;4983897;28;19953;-66
2023/05/20 12:07:41;;;;;;;;;;;;;;;20.70;59.99;96212.03;4983870;28;19963;-67
2023/05/20 12:10:07;;;;;;;;;;;;;;;20.88;58.00;96216.56;4983096;28;19961;-65
2023/05/20 12:12:33;;;;;;;;;;;;;;;21.02;56.39;96210.50;4983761;28;20247;-66
2023/05/20 12:14:58;;;;;;;;;;;;;;;21.20;59.17;96206.22;5050787;28;20024;-67
2023/05/20 12:17:24;;;;;;;;;;;;;;;21.19;60.83;96218.78;4983920;28;19965;-72
2023/05/20 12:19:50;;;;;;;;;;;;;;;21.19;58.64;96199.31;4983928;28;19955;-76
2023/05/20 12:22:16;;;;;;;;;;;;;;;21.12;56.95;96183.66;4983845;28;19985;-72
2023/05/20 12:24:42;;;;;;;;;;;;;;;21.19;60.39;96199.31;4984086;28;20297;-72
2023/05/20 12:27:07;;;;;;;;;;;;;;;21.33;57.21;96188.66;4983869;28;19957;-72
2023/05/20 12:29:33;;;;;;;;;;;;;;;21.43;56.52;96193.88;4983542;28;19952;-72
2023/05/20 12:31:59;;;;;;;;;;;;;;;21.39;58.95;96206.97;5050207;28;19978;-72
2023/05/20 12:34:25;;;;;;;;;;;;;;;21.38;57.40;96197.38;4983430;28;19981;-71
2023/05/20 12:36:51;;;;;;;;;;;;;;;21.48;54.90;96194.56;4983337;28;20244;-74
2023/05/20 12:39:17;;;;;;;;;;;;;;;21.66;59.62;96206.25;5050077;28;20048;-76